sensor_id;sensor_type;location;lat;lon;timestamp;pressure;altitude;pressure_sealevel;temperature
15701;BMP180;7950;42.744;23.174;2024-03-02T00:02:00;65556.66;;;-139.30
15701;BMP180;7950;42.744;23.174;2024-03-02T00:04:30;65556.66;;;-139.30
15701;BMP180;7950;42.744;23.174;2024-03-02T00:06:58;65556.66;;;-139.30
15701;BMP180;7950;42.744;23.174;2024-03-02T00:09:27;65556.66;;;-139.30
15701;BMP180;7950;42.744;23.174;2024-03-02T00:11:56;65556.66;;;-139.30
15701;BMP180;7950;42.744;23.174;2024-03-02T00:14:25;65556.66;;;-139.30
15701;BMP180;7950;42.744;23.174;2024-03-02T00:16:55;65556.66;;;-139.30
15701;BMP180;7950;42.744;23.174;2024-03-02T00:19:24;65556.66;;;-139.30
15701;BMP180;7950;42.744;23.174;2024-03-02T00:21:54;65556.66;;;-139.30
15701;BMP180;7950;42.744;23.174;2024-03-02T00:24:31;65556.66;;;-139.30
15701;BMP180;7950;42.744;23.174;2024-03-02T00:27:03;65556.66;;;-139.30
15701;BMP180;7950;42.744;23.174;2024-03-02T00:29:32;65556.66;;;-139.30
15701;BMP180;7950;42.744;23.174;2024-03-02T00:32:01;65556.66;;;-139.30
15701;BMP180;7950;42.744;23.174;2024-03-02T00:34:30;65556.66;;;-139.30
15701;BMP180;7950;42.744;23.174;2024-03-02T00:37:00;65556.66;;;-139.30
15701;BMP180;7950;42.744;23.174;2024-03-02T00:39:29;65556.66;;;-139.30
15701;BMP180;7950;42.744;23.174;2024-03-02T00:41:58;65556.66;;;-139.30
15701;BMP180;7950;42.744;23.174;2024-03-02T00:44:27;65556.66;;;-139.30
15701;BMP180;7950;42.744;23.174;2024-03-02T00:46:59;65556.66;;;-139.30
15701;BMP180;7950;42.744;23.174;2024-03-02T00:49:28;65556.66;;;-139.30
15701;BMP180;7950;42.744;23.174;2024-03-02T00:51:58;65556.66;;;-139.30
15701;BMP180;7950;42.744;23.174;2024-03-02T00:54:28;65556.66;;;-139.30
15701;BMP180;7950;42.744;23.174;2024-03-02T00:56:57;65556.66;;;-139.30
15701;BMP180;7950;42.744;23.174;2024-03-02T00:59:26;65556.66;;;-139.30
15701;BMP180;7950;42.744;23.174;2024-03-02T01:01:54;65556.66;;;-139.30
15701;BMP180;7950;42.744;23.174;2024-03-02T01:04:23;65556.66;;;-139.30
15701;BMP180;7950;42.744;23.174;2024-03-02T01:06:51;65556.66;;;-139.30
15701;BMP180;7950;42.744;23.174;2024-03-02T01:09:21;65556.66;;;-139.30
15701;BMP180;7950;42.744;23.174;2024-03-02T01:11:50;65556.66;;;-139.30
15701;BMP180;7950;42.744;23.174;2024-03-02T01:14:18;65556.66;;;-139.30
15701;BMP180;7950;42.744;23.174;2024-03-02T01:16:47;65556.66;;;-139.30
15701;BMP180;7950;42.744;23.174;2024-03-02T01:19:16;65556.66;;;-139.30
15701;BMP180;7950;42.744;23.174;2024-03-02T01:21:45;65556.66;;;-139.30
15701;BMP180;7950;42.744;23.174;2024-03-02T01:24:13;65556.66;;;-139.30
15701;BMP180;7950;42.744;23.174;2024-03-02T01:26:43;65556.66;;;-139.30
15701;BMP180;7950;42.744;23.174;2024-03-02T01:29:12;65556.66;;;-139.30
15701;BMP180;7950;42.744;23.174;2024-03-02T01:31:40;65556.66;;;-139.30
15701;BMP180;7950;42.744;23.174;2024-03-02T01:34:09;65556.66;;;-139.30
15701;BMP180;7950;42.744;23.174;2024-03-02T01:36:38;65556.66;;;-139.30
15701;BMP180;7950;42.744;23.174;2024-03-02T01:39:07;65556.66;;;-139.30
15701;BMP180;7950;42.744;23.174;2024-03-02T01:41:36;65556.66;;;-139.30
15701;BMP180;7950;42.744;23.174;2024-03-02T01:44:06;65556.66;;;-139.30
15701;BMP180;7950;42.744;23.174;2024-03-02T01:46:35;65556.66;;;-139.30
15701;BMP180;7950;42.744;23.174;2024-03-02T01:49:03;65556.66;;;-139.30
15701;BMP180;7950;42.744;23.174;2024-03-02T01:51:32;65556.66;;;-139.30
15701;BMP180;7950;42.744;23.174;2024-03-02T01:54:01;65556.66;;;-139.30
15701;BMP180;7950;42.744;23.174;2024-03-02T01:56:29;65556.66;;;-139.30
15701;BMP180;7950;42.744;23.174;2024-03-02T01:58:58;65556.66;;;-139.30
15701;BMP180;7950;42.744;23.174;2024-03-02T02:01:28;65556.66;;;-139.30
15701;BMP180;7950;42.744;23.174;2024-03-02T02:03:57;65556.66;;;-139.30
15701;BMP180;7950;42.744;23.174;2024-03-02T02:06:25;65556.66;;;-139.30
15701;BMP180;7950;42.744;23.174;2024-03-02T02:08:54;65556.66;;;-139.30
15701;BMP180;7950;42.744;23.174;2024-03-02T02:11:23;65556.66;;;-139.30
15701;BMP180;7950;42.744;23.174;2024-03-02T02:13:52;65556.66;;;-139.30
15701;BMP180;7950;42.744;23.174;2024-03-02T02:16:22;65556.66;;;-139.30
15701;BMP180;7950;42.744;23.174;2024-03-02T02:18:52;65556.66;;;-139.30
15701;BMP180;7950;42.744;23.174;2024-03-02T02:21:24;65556.66;;;-139.30
15701;BMP180;7950;42.744;23.174;2024-03-02T02:23:53;65556.66;;;-139.30
15701;BMP180;7950;42.744;23.174;2024-03-02T02:26:21;65556.66;;;-139.30
15701;BMP180;7950;42.744;23.174;2024-03-02T02:28:50;65556.66;;;-139.30
15701;BMP180;7950;42.744;23.174;2024-03-02T02:31:19;65556.66;;;-139.30
15701;BMP180;7950;42.744;23.174;2024-03-02T02:33:47;65556.66;;;-139.30
15701;BMP180;7950;42.744;23.174;2024-03-02T02:36:16;65556.66;;;-139.30
15701;BMP180;7950;42.744;23.174;2024-03-02T02:38:48;65556.66;;;-139.30
15701;BMP180;7950;42.744;23.174;2024-03-02T02:41:17;65556.66;;;-139.30
15701;BMP180;7950;42.744;23.174;2024-03-02T02:43:45;65556.66;;;-139.30
15701;BMP180;7950;42.744;23.174;2024-03-02T02:46:14;65556.66;;;-139.30
15701;BMP180;7950;42.744;23.174;2024-03-02T02:48:42;65556.66;;;-139.30
15701;BMP180;7950;42.744;23.174;2024-03-02T02:51:11;65556.66;;;-139.30
15701;BMP180;7950;42.744;23.174;2024-03-02T02:53:39;65556.66;;;-139.30
15701;BMP180;7950;42.744;23.174;2024-03-02T02:56:10;65556.66;;;-139.30
15701;BMP180;7950;42.744;23.174;2024-03-02T02:58:40;65556.66;;;-139.30
15701;BMP180;7950;42.744;23.174;2024-03-02T03:01:09;65556.66;;;-139.30
15701;BMP180;7950;42.744;23.174;2024-03-02T03:03:38;65556.66;;;-139.30
15701;BMP180;7950;42.744;23.174;2024-03-02T03:06:07;65556.66;;;-139.30
15701;BMP180;7950;42.744;23.174;2024-03-02T03:08:35;65556.66;;;-139.30
15701;BMP180;7950;42.744;23.174;2024-03-02T03:11:04;65556.66;;;-139.30
15701;BMP180;7950;42.744;23.174;2024-03-02T03:13:35;65556.66;;;-139.30
15701;BMP180;7950;42.744;23.174;2024-03-02T03:16:04;65556.66;;;-139.30
15701;BMP180;7950;42.744;23.174;2024-03-02T03:18:33;65556.66;;;-139.30
15701;BMP180;7950;42.744;23.174;2024-03-02T03:21:01;65556.66;;;-139.30
15701;BMP180;7950;42.744;23.174;2024-03-02T03:23:30;65556.66;;;-139.30
15701;BMP180;7950;42.744;23.174;2024-03-02T03:25:58;65556.66;;;-139.30
15701;BMP180;7950;42.744;23.174;2024-03-02T03:28:27;65556.66;;;-139.30
15701;BMP180;7950;42.744;23.174;2024-03-02T03:30:57;65556.66;;;-139.30
15701;BMP180;7950;42.744;23.174;2024-03-02T03:33:26;65556.66;;;-139.30
15701;BMP180;7950;42.744;23.174;2024-03-02T03:35:54;65556.66;;;-139.30
15701;BMP180;7950;42.744;23.174;2024-03-02T03:38:23;65556.66;;;-139.30
15701;BMP180;7950;42.744;23.174;2024-03-02T03:40:51;65556.66;;;-139.30
15701;BMP180;7950;42.744;23.174;2024-03-02T03:43:20;65556.66;;;-139.30
15701;BMP180;7950;42.744;23.174;2024-03-02T03:45:48;65556.66;;;-139.30
15701;BMP180;7950;42.744;23.174;2024-03-02T03:48:18;65556.66;;;-139.30
15701;BMP180;7950;42.744;23.174;2024-03-02T03:50:47;65556.66;;;-139.30
15701;BMP180;7950;42.744;23.174;2024-03-02T03:53:15;65556.66;;;-139.30
15701;BMP180;7950;42.744;23.174;2024-03-02T03:55:44;65556.66;;;-139.30
15701;BMP180;7950;42.744;23.174;2024-03-02T03:58:13;65556.66;;;-139.30
15701;BMP180;7950;42.744;23.174;2024-03-02T04:00:46;65556.66;;;-139.30
15701;BMP180;7950;42.744;23.174;2024-03-02T04:03:15;65556.66;;;-139.30
15701;BMP180;7950;42.744;23.174;2024-03-02T04:05:45;65556.66;;;-139.30
15701;BMP180;7950;42.744;23.174;2024-03-02T04:08:13;65556.66;;;-139.30
15701;BMP180;7950;42.744;23.174;2024-03-02T04:10:42;65556.66;;;-139.30
15701;BMP180;7950;42.744;23.174;2024-03-02T04:13:10;65556.66;;;-139.30
15701;BMP180;7950;42.744;23.174;2024-03-02T04:15:39;65556.66;;;-139.30
15701;BMP180;7950;42.744;23.174;2024-03-02T04:18:08;65556.66;;;-139.30
15701;BMP180;7950;42.744;23.174;2024-03-02T04:20:37;65556.66;;;-139.30
15701;BMP180;7950;42.744;23.174;2024-03-02T04:23:07;65556.66;;;-139.30
15701;BMP180;7950;42.744;23.174;2024-03-02T04:25:34;65556.66;;;-139.30
15701;BMP180;7950;42.744;23.174;2024-03-02T04:28:03;65556.66;;;-139.30
15701;BMP180;7950;42.744;23.174;2024-03-02T04:30:32;65556.66;;;-139.30
15701;BMP180;7950;42.744;23.174;2024-03-02T04:33:01;65556.66;;;-139.30
15701;BMP180;7950;42.744;23.174;2024-03-02T04:35:31;65556.66;;;-139.30
15701;BMP180;7950;42.744;23.174;2024-03-02T04:37:59;65556.66;;;-139.30
15701;BMP180;7950;42.744;23.174;2024-03-02T04:40:29;65556.66;;;-139.30
15701;BMP180;7950;42.744;23.174;2024-03-02T04:42:58;65556.66;;;-139.30
15701;BMP180;7950;42.744;23.174;2024-03-02T04:45:27;65556.66;;;-139.30
15701;BMP180;7950;42.744;23.174;2024-03-02T04:47:55;65556.66;;;-139.30
15701;BMP180;7950;42.744;23.174;2024-03-02T04:50:24;65556.66;;;-139.30
15701;BMP180;7950;42.744;23.174;2024-03-02T04:52:52;65556.66;;;-139.30
15701;BMP180;7950;42.744;23.174;2024-03-02T04:55:21;65556.66;;;-139.30
15701;BMP180;7950;42.744;23.174;2024-03-02T04:58:14;65556.66;;;-139.30
15701;BMP180;7950;42.744;23.174;2024-03-02T05:00:42;65556.66;;;-139.30
15701;BMP180;7950;42.744;23.174;2024-03-02T05:03:13;65556.66;;;-139.30
15701;BMP180;7950;42.744;23.174;2024-03-02T05:05:42;65556.66;;;-139.30
15701;BMP180;7950;42.744;23.174;2024-03-02T05:08:11;65556.66;;;-139.30
15701;BMP180;7950;42.744;23.174;2024-03-02T05:10:40;65556.66;;;-139.30
15701;BMP180;7950;42.744;23.174;2024-03-02T05:13:09;65556.66;;;-139.30
15701;BMP180;7950;42.744;23.174;2024-03-02T05:15:38;65556.66;;;-139.30
15701;BMP180;7950;42.744;23.174;2024-03-02T05:18:07;65556.66;;;-139.30
15701;BMP180;7950;42.744;23.174;2024-03-02T05:20:36;65556.66;;;-139.30
15701;BMP180;7950;42.744;23.174;2024-03-02T05:23:04;65556.66;;;-139.30
15701;BMP180;7950;42.744;23.174;2024-03-02T05:25:33;65556.66;;;-139.30
15701;BMP180;7950;42.744;23.174;2024-03-02T05:28:03;65556.66;;;-139.30
15701;BMP180;7950;42.744;23.174;2024-03-02T05:30:31;65556.66;;;-139.30
15701;BMP180;7950;42.744;23.174;2024-03-02T05:33:01;65556.66;;;-139.30
15701;BMP180;7950;42.744;23.174;2024-03-02T05:35:30;65556.66;;;-139.30
15701;BMP180;7950;42.744;23.174;2024-03-02T05:38:00;65556.66;;;-139.30
15701;BMP180;7950;42.744;23.174;2024-03-02T05:40:28;65556.66;;;-139.30
15701;BMP180;7950;42.744;23.174;2024-03-02T05:42:56;65556.66;;;-139.30
15701;BMP180;7950;42.744;23.174;2024-03-02T05:45:25;65556.66;;;-139.30
15701;BMP180;7950;42.744;23.174;2024-03-02T05:47:53;65556.66;;;-139.30
15701;BMP180;7950;42.744;23.174;2024-03-02T05:50:23;65556.66;;;-139.30
15701;BMP180;7950;42.744;23.174;2024-03-02T05:52:52;65556.66;;;-139.30
15701;BMP180;7950;42.744;23.174;2024-03-02T05:55:20;65556.66;;;-139.30
15701;BMP180;7950;42.744;23.174;2024-03-02T05:57:49;65556.66;;;-139.30
15701;BMP180;7950;42.744;23.174;2024-03-02T06:00:29;65556.66;;;-139.30
15701;BMP180;7950;42.744;23.174;2024-03-02T06:02:59;65556.66;;;-139.30
15701;BMP180;7950;42.744;23.174;2024-03-02T06:05:28;65556.66;;;-139.30
15701;BMP180;7950;42.744;23.174;2024-03-02T06:07:57;65556.66;;;-139.30
15701;BMP180;7950;42.744;23.174;2024-03-02T06:10:25;65556.66;;;-139.30
15701;BMP180;7950;42.744;23.174;2024-03-02T06:12:54;65556.66;;;-139.30
15701;BMP180;7950;42.744;23.174;2024-03-02T06:15:23;65556.66;;;-139.30
15701;BMP180;7950;42.744;23.174;2024-03-02T06:17:51;65556.66;;;-139.30
15701;BMP180;7950;42.744;23.174;2024-03-02T06:20:21;65556.66;;;-139.30
15701;BMP180;7950;42.744;23.174;2024-03-02T06:22:51;65556.66;;;-139.30
15701;BMP180;7950;42.744;23.174;2024-03-02T06:25:19;65556.66;;;-139.30
15701;BMP180;7950;42.744;23.174;2024-03-02T06:27:48;65556.66;;;-139.30
15701;BMP180;7950;42.744;23.174;2024-03-02T06:30:16;65556.66;;;-139.30
15701;BMP180;7950;42.744;23.174;2024-03-02T06:32:45;65556.66;;;-139.30
15701;BMP180;7950;42.744;23.174;2024-03-02T06:35:14;65556.66;;;-139.30
15701;BMP180;7950;42.744;23.174;2024-03-02T06:37:42;65556.66;;;-139.30
15701;BMP180;7950;42.744;23.174;2024-03-02T06:40:12;65556.66;;;-139.30
15701;BMP180;7950;42.744;23.174;2024-03-02T06:42:41;65556.66;;;-139.30
15701;BMP180;7950;42.744;23.174;2024-03-02T06:45:09;65556.66;;;-139.30
15701;BMP180;7950;42.744;23.174;2024-03-02T06:47:38;65556.66;;;-139.30
15701;BMP180;7950;42.744;23.174;2024-03-02T06:50:08;65556.66;;;-139.30
15701;BMP180;7950;42.744;23.174;2024-03-02T06:52:36;65556.66;;;-139.30
15701;BMP180;7950;42.744;23.174;2024-03-02T06:55:07;65556.66;;;-139.30
15701;BMP180;7950;42.744;23.174;2024-03-02T06:57:36;65556.66;;;-139.30
15701;BMP180;7950;42.744;23.174;2024-03-02T07:00:06;65556.66;;;-139.30
15701;BMP180;7950;42.744;23.174;2024-03-02T07:02:36;65556.66;;;-139.30
15701;BMP180;7950;42.744;23.174;2024-03-02T07:05:05;65556.66;;;-139.30
15701;BMP180;7950;42.744;23.174;2024-03-02T07:07:34;65556.66;;;-139.30
15701;BMP180;7950;42.744;23.174;2024-03-02T07:10:04;65556.66;;;-139.30
15701;BMP180;7950;42.744;23.174;2024-03-02T07:12:36;65556.66;;;-139.30
15701;BMP180;7950;42.744;23.174;2024-03-02T07:15:06;65556.66;;;-139.30
15701;BMP180;7950;42.744;23.174;2024-03-02T07:17:51;65556.66;;;-139.30
15701;BMP180;7950;42.744;23.174;2024-03-02T07:20:20;65556.66;;;-139.30
15701;BMP180;7950;42.744;23.174;2024-03-02T07:22:48;65556.66;;;-139.30
15701;BMP180;7950;42.744;23.174;2024-03-02T07:25:17;65556.66;;;-139.30
15701;BMP180;7950;42.744;23.174;2024-03-02T07:27:50;65556.66;;;-139.30
15701;BMP180;7950;42.744;23.174;2024-03-02T07:30:20;65556.66;;;-139.30
15701;BMP180;7950;42.744;23.174;2024-03-02T07:32:50;65556.66;;;-139.30
15701;BMP180;7950;42.744;23.174;2024-03-02T07:35:19;65556.66;;;-139.30
15701;BMP180;7950;42.744;23.174;2024-03-02T07:37:49;65556.66;;;-139.30
15701;BMP180;7950;42.744;23.174;2024-03-02T07:40:17;65556.66;;;-139.30
15701;BMP180;7950;42.744;23.174;2024-03-02T07:42:46;65556.66;;;-139.30
15701;BMP180;7950;42.744;23.174;2024-03-02T07:45:16;65556.66;;;-139.30
15701;BMP180;7950;42.744;23.174;2024-03-02T07:47:45;65556.66;;;-139.30
15701;BMP180;7950;42.744;23.174;2024-03-02T07:50:14;65556.66;;;-139.30
15701;BMP180;7950;42.744;23.174;2024-03-02T07:52:43;65556.66;;;-139.30
15701;BMP180;7950;42.744;23.174;2024-03-02T07:55:11;65556.66;;;-139.30
15701;BMP180;7950;42.744;23.174;2024-03-02T07:57:40;65556.66;;;-139.30
15701;BMP180;7950;42.744;23.174;2024-03-02T08:00:11;65556.66;;;-139.30
15701;BMP180;7950;42.744;23.174;2024-03-02T08:02:43;65556.66;;;-139.30
15701;BMP180;7950;42.744;23.174;2024-03-02T08:05:11;65556.66;;;-139.30
15701;BMP180;7950;42.744;23.174;2024-03-02T08:07:40;65556.66;;;-139.30
15701;BMP180;7950;42.744;23.174;2024-03-02T08:10:09;65556.66;;;-139.30
15701;BMP180;7950;42.744;23.174;2024-03-02T08:12:38;65556.66;;;-139.30
15701;BMP180;7950;42.744;23.174;2024-03-02T08:15:07;65556.66;;;-139.30
15701;BMP180;7950;42.744;23.174;2024-03-02T08:17:36;65556.66;;;-139.30
15701;BMP180;7950;42.744;23.174;2024-03-02T08:20:08;65556.66;;;-139.30
15701;BMP180;7950;42.744;23.174;2024-03-02T08:22:37;65556.66;;;-139.30
15701;BMP180;7950;42.744;23.174;2024-03-02T08:25:07;65556.66;;;-139.30
15701;BMP180;7950;42.744;23.174;2024-03-02T08:27:39;65556.66;;;-139.30
15701;BMP180;7950;42.744;23.174;2024-03-02T08:30:10;65556.66;;;-139.30
15701;BMP180;7950;42.744;23.174;2024-03-02T08:32:38;65556.66;;;-139.30
15701;BMP180;7950;42.744;23.174;2024-03-02T08:35:09;65556.66;;;-139.30
15701;BMP180;7950;42.744;23.174;2024-03-02T08:37:39;65556.66;;;-139.30
15701;BMP180;7950;42.744;23.174;2024-03-02T08:40:09;65556.66;;;-139.30
15701;BMP180;7950;42.744;23.174;2024-03-02T08:42:42;65556.66;;;-139.30
15701;BMP180;7950;42.744;23.174;2024-03-02T08:45:11;65556.66;;;-139.30
15701;BMP180;7950;42.744;23.174;2024-03-02T08:47:39;65556.66;;;-139.30
15701;BMP180;7950;42.744;23.174;2024-03-02T08:50:09;65556.66;;;-139.30
15701;BMP180;7950;42.744;23.174;2024-03-02T08:52:38;65556.66;;;-139.30
15701;BMP180;7950;42.744;23.174;2024-03-02T08:55:07;65556.66;;;-139.30
15701;BMP180;7950;42.744;23.174;2024-03-02T08:57:36;65556.66;;;-139.30
15701;BMP180;7950;42.744;23.174;2024-03-02T09:10:47;93877.72;;;9.38
15701;BMP180;7950;42.744;23.174;2024-03-02T09:13:16;93891.91;;;9.47
15701;BMP180;7950;42.744;23.174;2024-03-02T09:15:45;93892.19;;;9.55
15701;BMP180;7950;42.744;23.174;2024-03-02T09:18:14;93895.84;;;9.54
15701;BMP180;7950;42.744;23.174;2024-03-02T09:20:42;93899.53;;;9.53
15701;BMP180;7950;42.744;23.174;2024-03-02T09:23:11;93896.66;;;9.60
15701;BMP180;7950;42.744;23.174;2024-03-02T09:25:40;93899.81;;;9.67
15701;BMP180;7950;42.744;23.174;2024-03-02T09:28:11;93897.50;;;9.75
15701;BMP180;7950;42.744;23.174;2024-03-02T09:30:39;93894.91;;;9.80
15701;BMP180;7950;42.744;23.174;2024-03-02T09:33:08;93899.66;;;9.83
15701;BMP180;7950;42.744;23.174;2024-03-02T09:35:39;93912.19;;;9.81
15701;BMP180;7950;42.744;23.174;2024-03-02T09:38:08;93900.41;;;9.84
15701;BMP180;7950;42.744;23.174;2024-03-02T09:40:36;93907.47;;;9.78
15701;BMP180;7950;42.744;23.174;2024-03-02T09:43:05;93904.56;;;9.70
15701;BMP180;7950;42.744;23.174;2024-03-02T09:45:36;93903.50;;;9.71
15701;BMP180;7950;42.744;23.174;2024-03-02T09:48:05;93907.69;;;9.67
15701;BMP180;7950;42.744;23.174;2024-03-02T09:50:34;93906.38;;;9.69
15701;BMP180;7950;42.744;23.174;2024-03-02T09:53:04;93907.19;;;9.70
15701;BMP180;7950;42.744;23.174;2024-03-02T09:55:33;93909.53;;;9.66
15701;BMP180;7950;42.744;23.174;2024-03-02T09:58:01;93901.66;;;9.66
15701;BMP180;7950;42.744;23.174;2024-03-02T10:00:31;93906.13;;;9.76
15701;BMP180;7950;42.744;23.174;2024-03-02T10:03:02;93906.13;;;9.76
15701;BMP180;7950;42.744;23.174;2024-03-02T10:05:32;93895.72;;;9.86
15701;BMP180;7950;42.744;23.174;2024-03-02T10:08:01;93898.88;;;9.93
15701;BMP180;7950;42.744;23.174;2024-03-02T10:10:38;93900.19;;;10.00
15701;BMP180;7950;42.744;23.174;2024-03-02T10:13:10;93901.59;;;10.13
15701;BMP180;7950;42.744;23.174;2024-03-02T10:15:40;93897.34;;;10.07
15701;BMP180;7950;42.744;23.174;2024-03-02T10:18:12;93891.88;;;10.08
15701;BMP180;7950;42.744;23.174;2024-03-02T10:20:43;93889.78;;;10.10
15701;BMP180;7950;42.744;23.174;2024-03-02T10:23:12;93889.81;;;10.25
15701;BMP180;7950;42.744;23.174;2024-03-02T10:25:42;93892.72;;;10.34
15701;BMP180;7950;42.744;23.174;2024-03-02T10:28:24;93889.84;;;10.40
15701;BMP180;7950;42.744;23.174;2024-03-02T10:30:55;93894.81;;;10.52
15701;BMP180;7950;42.744;23.174;2024-03-02T10:33:25;93892.19;;;10.57
15701;BMP180;7950;42.744;23.174;2024-03-02T10:35:54;93885.09;;;10.62
15701;BMP180;7950;42.744;23.174;2024-03-02T10:38:23;93882.75;;;10.71
15701;BMP180;7950;42.744;23.174;2024-03-02T10:40:51;93891.94;;;10.73
15701;BMP180;7950;42.744;23.174;2024-03-02T10:43:22;93886.94;;;10.77
15701;BMP180;7950;42.744;23.174;2024-03-02T10:45:52;93885.63;;;10.74
15701;BMP180;7950;42.744;23.174;2024-03-02T10:48:25;93878.03;;;10.78
15701;BMP180;7950;42.744;23.174;2024-03-02T10:50:54;93880.91;;;10.81
15701;BMP180;7950;42.744;23.174;2024-03-02T10:53:25;93876.19;;;10.83
15701;BMP180;7950;42.744;23.174;2024-03-02T10:55:58;93874.09;;;10.80
15701;BMP180;7950;42.744;23.174;2024-03-02T10:58:33;93882.22;;;10.74
15701;BMP180;7950;42.744;23.174;2024-03-02T11:01:03;93882.50;;;10.67
15701;BMP180;7950;42.744;23.174;2024-03-02T11:03:36;93880.91;;;10.66
15701;BMP180;7950;42.744;23.174;2024-03-02T11:06:08;93863.34;;;10.67
15701;BMP180;7950;42.744;23.174;2024-03-02T11:08:40;93870.94;;;10.68
15701;BMP180;7950;42.744;23.174;2024-03-02T11:11:15;93868.84;;;10.65
15701;BMP180;7950;42.744;23.174;2024-03-02T11:13:50;93867.28;;;10.69
15701;BMP180;7950;42.744;23.174;2024-03-02T11:16:29;93867.78;;;10.61
15701;BMP180;7950;42.744;23.174;2024-03-02T11:19:05;93868.84;;;10.60
15701;BMP180;7950;42.744;23.174;2024-03-02T11:21:36;93860.72;;;10.67
15701;BMP180;7950;42.744;23.174;2024-03-02T11:24:32;93865.19;;;10.61
15701;BMP180;7950;42.744;23.174;2024-03-02T11:27:06;93866.22;;;10.60
15701;BMP180;7950;42.744;23.174;2024-03-02T11:29:45;93858.91;;;10.67
15701;BMP180;7950;42.744;23.174;2024-03-02T11:32:16;93869.38;;;10.72
15701;BMP180;7950;42.744;23.174;2024-03-02T11:34:50;93854.69;;;10.71
15701;BMP180;7950;42.744;23.174;2024-03-02T11:37:20;93858.63;;;10.79
15701;BMP180;7950;42.744;23.174;2024-03-02T11:39:50;93850.75;;;10.74
15701;BMP180;7950;42.744;23.174;2024-03-02T11:42:19;93860.69;;;10.77
15701;BMP180;7950;42.744;23.174;2024-03-02T11:44:48;93850.22;;;10.87
15701;BMP180;7950;42.744;23.174;2024-03-02T11:47:18;93857.28;;;10.96
15701;BMP180;7950;42.744;23.174;2024-03-02T11:49:50;93852.81;;;11.02
15701;BMP180;7950;42.744;23.174;2024-03-02T11:52:19;93854.06;;;11.14
15701;BMP180;7950;42.744;23.174;2024-03-02T11:54:48;93860.66;;;11.07
15701;BMP180;7950;42.744;23.174;2024-03-02T11:57:21;93847.03;;;11.00
15701;BMP180;7950;42.744;23.174;2024-03-02T11:59:50;93850.69;;;11.09
15701;BMP180;7950;42.744;23.174;2024-03-02T12:02:21;93852.56;;;10.98
15701;BMP180;7950;42.744;23.174;2024-03-02T12:04:51;93846.00;;;11.01
15701;BMP180;7950;42.744;23.174;2024-03-02T12:07:20;93853.59;;;10.92
15701;BMP180;7950;42.744;23.174;2024-03-02T12:09:59;93849.94;;;10.93
15701;BMP180;7950;42.744;23.174;2024-03-02T12:12:29;93847.31;;;10.98
15701;BMP180;7950;42.744;23.174;2024-03-02T12:14:57;93847.31;;;10.98
15701;BMP180;7950;42.744;23.174;2024-03-02T12:17:29;93860.72;;;10.87
15701;BMP180;7950;42.744;23.174;2024-03-02T12:19:59;93856.78;;;10.64
15701;BMP180;7950;42.744;23.174;2024-03-02T12:22:31;93860.19;;;10.60
15701;BMP180;7950;42.744;23.174;2024-03-02T12:24:59;93854.94;;;10.50
15701;BMP180;7950;42.744;23.174;2024-03-02T12:27:28;93855.75;;;10.50
15701;BMP180;7950;42.744;23.174;2024-03-02T12:29:57;93854.19;;;10.49
15701;BMP180;7950;42.744;23.174;2024-03-02T12:32:25;93852.06;;;10.51
15701;BMP180;7950;42.744;23.174;2024-03-02T12:34:55;93861.00;;;10.45
15701;BMP180;7950;42.744;23.174;2024-03-02T12:37:25;93860.19;;;10.40
15701;BMP180;7950;42.744;23.174;2024-03-02T12:39:54;93853.66;;;10.42
15701;BMP180;7950;42.744;23.174;2024-03-02T12:42:24;93863.06;;;10.48
15701;BMP180;7950;42.744;23.174;2024-03-02T12:44:53;93857.31;;;10.46
15701;BMP180;7950;42.744;23.174;2024-03-02T12:47:23;93860.44;;;10.48
15701;BMP180;7950;42.744;23.174;2024-03-02T12:49:51;93865.97;;;10.52
15701;BMP180;7950;42.744;23.174;2024-03-02T12:52:21;65556.66;;;-139.30
15701;BMP180;7950;42.744;23.174;2024-03-02T12:54:51;65556.66;;;-139.30
15701;BMP180;7950;42.744;23.174;2024-03-02T12:57:29;65556.66;;;-139.30
15701;BMP180;7950;42.744;23.174;2024-03-02T12:59:59;65556.66;;;-139.30
15701;BMP180;7950;42.744;23.174;2024-03-02T13:02:29;65556.66;;;-139.30
15701;BMP180;7950;42.744;23.174;2024-03-02T13:04:58;65556.66;;;-139.30
15701;BMP180;7950;42.744;23.174;2024-03-02T13:07:28;65556.66;;;-139.30
15701;BMP180;7950;42.744;23.174;2024-03-02T13:09:59;65556.66;;;-139.30
15701;BMP180;7950;42.744;23.174;2024-03-02T13:12:29;65556.66;;;-139.30
15701;BMP180;7950;42.744;23.174;2024-03-02T13:14:59;65556.66;;;-139.30
15701;BMP180;7950;42.744;23.174;2024-03-02T13:17:28;65556.66;;;-139.30
15701;BMP180;7950;42.744;23.174;2024-03-02T13:20:03;65556.66;;;-139.30
15701;BMP180;7950;42.744;23.174;2024-03-02T13:22:36;65556.66;;;-139.30
15701;BMP180;7950;42.744;23.174;2024-03-02T13:25:06;65556.66;;;-139.30
15701;BMP180;7950;42.744;23.174;2024-03-02T13:27:38;65556.66;;;-139.30
15701;BMP180;7950;42.744;23.174;2024-03-02T13:30:08;65556.66;;;-139.30
15701;BMP180;7950;42.744;23.174;2024-03-02T13:32:37;65556.66;;;-139.30
15701;BMP180;7950;42.744;23.174;2024-03-02T13:35:05;65556.66;;;-139.30
15701;BMP180;7950;42.744;23.174;2024-03-02T13:37:34;65556.66;;;-139.30
15701;BMP180;7950;42.744;23.174;2024-03-02T13:40:08;65556.66;;;-139.30
15701;BMP180;7950;42.744;23.174;2024-03-02T13:42:41;65556.66;;;-139.30
15701;BMP180;7950;42.744;23.174;2024-03-02T13:45:09;65556.66;;;-139.30
15701;BMP180;7950;42.744;23.174;2024-03-02T13:47:38;65556.66;;;-139.30
15701;BMP180;7950;42.744;23.174;2024-03-02T13:50:07;65556.66;;;-139.30
15701;BMP180;7950;42.744;23.174;2024-03-02T13:52:36;65556.66;;;-139.30
15701;BMP180;7950;42.744;23.174;2024-03-02T13:55:07;65556.66;;;-139.30
15701;BMP180;7950;42.744;23.174;2024-03-02T13:57:36;65556.66;;;-139.30
15701;BMP180;7950;42.744;23.174;2024-03-02T14:00:07;65556.66;;;-139.30
15701;BMP180;7950;42.744;23.174;2024-03-02T14:02:38;65556.66;;;-139.30
15701;BMP180;7950;42.744;23.174;2024-03-02T14:05:07;65556.66;;;-139.30
15701;BMP180;7950;42.744;23.174;2024-03-02T14:07:38;65556.66;;;-139.30
15701;BMP180;7950;42.744;23.174;2024-03-02T14:10:09;65556.66;;;-139.30
15701;BMP180;7950;42.744;23.174;2024-03-02T14:12:38;65556.66;;;-139.30
15701;BMP180;7950;42.744;23.174;2024-03-02T14:15:07;65556.66;;;-139.30
15701;BMP180;7950;42.744;23.174;2024-03-02T14:17:36;65556.66;;;-139.30